PWSweather.com
Personal Weather Stations
Station Observations
AF1HS
North Haven, CT 06473

North Haven, CT 06473

Lat: 41.3733, Lon: -72.8413

Elevation: 85.3

Station Type: Oregon Scientific WMR968

http://www.af1hs.com/wx/index.php

High Low Average
Temperature 50.3°F10.2°F 21.2°F-6.0°F 39.2°F4.0°F
Dew Point 50.0°F10.0°F 15.7°F-9.1°F 33.9°F1.1°F
Winds Calm SSECalm SSE Calm Calm Calm Calm
Wind Gusts -- -- --
Humidity 100% 58% 82%
Pressure 29.94 in1013.90 in 29.35 in993.90 in -
Precipitation 0.12 in3.00 in - -
Hour Temp Dew Point Humidity Winds Wind Gusts Pressure Precip Precip Rate Daily Precip Total
12:00 AM 25.3°F-3.7°C 16.2°F-8.8°C 68% Calm Calm -- 29.94 in1013.9 mb - 0.00 in0.0 mm 0.00 in0.0 mm
12:10 AM 25.0°F-3.9°C 16.2°F-8.8°C 69% Calm Calm -- 29.94 in1013.9 mb - 0.00 in0.0 mm 0.00 in0.0 mm
12:21 AM 24.4°F-4.2°C 16.1°F-8.8°C 70% Calm Calm -- 29.91 in1012.9 mb - 0.00 in0.0 mm 0.00 in0.0 mm
12:31 AM 24.8°F-4.0°C 16.4°F-8.7°C 70% Calm Calm -- 29.91 in1012.9 mb - 0.00 in0.0 mm 0.00 in0.0 mm
12:41 AM 24.8°F-4.0°C 16.4°F-8.7°C 70% Calm Calm -- 29.91 in1012.9 mb - 0.00 in0.0 mm 0.00 in0.0 mm
12:51 AM 24.5°F-4.2°C 16.5°F-8.6°C 71% Calm Calm -- 29.91 in1012.9 mb - 0.00 in0.0 mm 0.00 in0.0 mm
01:11 AM 24.3°F-4.3°C 16.2°F-8.8°C 71% Calm Calm -- 29.91 in1012.9 mb - 0.00 in0.0 mm 0.00 in0.0 mm
01:21 AM 24.2°F-4.3°C 16.4°F-8.7°C 72% Calm Calm -- 29.94 in1013.9 mb - 0.00 in0.0 mm 0.00 in0.0 mm
01:31 AM 23.9°F-4.5°C 16.2°F-8.8°C 72% Calm Calm -- 29.94 in1013.9 mb - 0.00 in0.0 mm 0.00 in0.0 mm
01:41 AM 23.8°F-4.6°C 16.0°F-8.9°C 72% Calm Calm -- 29.94 in1013.9 mb - 0.00 in0.0 mm 0.00 in0.0 mm
01:51 AM 23.6°F-4.7°C 15.9°F-8.9°C 72% Calm Calm -- 29.91 in1012.9 mb - 0.00 in0.0 mm 0.00 in0.0 mm
02:01 AM 23.4°F-4.8°C 16.0°F-8.9°C 73% Calm Calm -- 29.91 in1012.9 mb - 0.00 in0.0 mm 0.00 in0.0 mm
02:11 AM 23.1°F-4.9°C 15.7°F-9.1°C 73% Calm Calm -- 29.91 in1012.9 mb - 0.00 in0.0 mm 0.00 in0.0 mm
02:21 AM 22.6°F-5.2°C 15.9°F-8.9°C 75% Calm Calm -- 29.91 in1012.9 mb - 0.00 in0.0 mm 0.00 in0.0 mm
02:31 AM 22.8°F-5.1°C 16.7°F-8.5°C 77% Calm Calm -- 29.91 in1012.9 mb - 0.00 in0.0 mm 0.00 in0.0 mm
02:41 AM 22.7°F-5.2°C 16.6°F-8.6°C 77% Calm Calm -- 29.91 in1012.9 mb - 0.00 in0.0 mm 0.00 in0.0 mm
02:51 AM 22.6°F-5.2°C 16.8°F-8.4°C 78% Calm Calm -- 29.88 in1011.9 mb - 0.00 in0.0 mm 0.00 in0.0 mm
03:01 AM 22.9°F-5.1°C 17.0°F-8.3°C 78% Calm Calm -- 29.91 in1012.9 mb - 0.00 in0.0 mm 0.00 in0.0 mm
03:11 AM 22.6°F-5.2°C 16.8°F-8.4°C 78% Calm Calm -- 29.91 in1012.9 mb - 0.00 in0.0 mm 0.00 in0.0 mm
03:21 AM 22.6°F-5.2°C 16.8°F-8.4°C 78% Calm Calm -- 29.91 in1012.9 mb - 0.00 in0.0 mm 0.00 in0.0 mm
03:32 AM 22.3°F-5.4°C 16.5°F-8.6°C 78% Calm Calm -- 29.91 in1012.9 mb - 0.00 in0.0 mm 0.00 in0.0 mm
04:31 AM 21.7°F-5.7°C 16.2°F-8.8°C 79% Calm Calm -- 29.88 in1011.9 mb - 0.00 in0.0 mm 0.00 in0.0 mm
04:41 AM 21.8°F-5.7°C 16.6°F-8.6°C 80% Calm Calm -- 29.88 in1011.9 mb - 0.00 in0.0 mm 0.00 in0.0 mm
04:51 AM 22.0°F-5.6°C 16.8°F-8.4°C 80% Calm Calm -- 29.88 in1011.9 mb - 0.00 in0.0 mm 0.00 in0.0 mm
05:01 AM 22.1°F-5.5°C 16.9°F-8.4°C 80% Calm Calm -- 29.88 in1011.9 mb - 0.00 in0.0 mm 0.00 in0.0 mm
05:11 AM 22.1°F-5.5°C 16.9°F-8.4°C 80% Calm Calm -- 29.88 in1011.9 mb - 0.00 in0.0 mm 0.00 in0.0 mm
05:22 AM 21.7°F-5.7°C 16.8°F-8.4°C 81% Calm Calm -- 29.88 in1011.9 mb - 0.00 in0.0 mm 0.00 in0.0 mm
06:51 AM 21.2°F-6.0°C 16.8°F-8.4°C 83% Calm Calm -- 29.88 in1011.9 mb - 0.00 in0.0 mm 0.00 in0.0 mm
07:01 AM 21.4°F-5.9°C 17.1°F-8.3°C 83% Calm Calm -- 29.88 in1011.9 mb - 0.00 in0.0 mm 0.00 in0.0 mm
07:11 AM 21.7°F-5.7°C 17.7°F-7.9°C 84% Calm Calm -- 29.88 in1011.9 mb - 0.00 in0.0 mm 0.00 in0.0 mm
07:21 AM 22.3°F-5.4°C 18.5°F-7.5°C 85% Calm Calm -- 29.86 in1011.2 mb - 0.00 in0.0 mm 0.00 in0.0 mm
07:31 AM 23.2°F-4.9°C 19.3°F-7.1°C 85% Calm Calm -- 29.86 in1011.2 mb - 0.00 in0.0 mm 0.00 in0.0 mm
07:41 AM 23.7°F-4.6°C 20.1°F-6.6°C 86% Calm Calm -- 29.86 in1011.2 mb - 0.00 in0.0 mm 0.00 in0.0 mm
08:01 AM 24.8°F-4.0°C 21.7°F-5.7°C 88% Calm Calm -- 29.88 in1011.9 mb - 0.00 in0.0 mm 0.00 in0.0 mm
09:21 AM 29.4°F-1.4°C 24.9°F-3.9°C 83% Calm Calm -- 29.82 in1009.8 mb - 0.00 in0.0 mm 0.00 in0.0 mm
09:31 AM 30.6°F-0.8°C 25.8°F-3.4°C 82% Calm Calm -- 29.82 in1009.8 mb - 0.00 in0.0 mm 0.00 in0.0 mm
09:42 AM 31.3°F-0.4°C 25.9°F-3.4°C 80% Calm Calm -- 29.82 in1009.8 mb - 0.00 in0.0 mm 0.00 in0.0 mm
10:11 AM 33.8°F1.0°C 24.7°F-4.1°C 69% Calm Calm -- 29.82 in1009.8 mb - 0.00 in0.0 mm 0.00 in0.0 mm
10:22 AM 33.6°F0.9°C 23.5°F-4.7°C 66% Calm Calm -- 29.82 in1009.8 mb - 0.00 in0.0 mm 0.00 in0.0 mm
10:40 AM 35.0°F1.7°C 24.8°F-4.0°C 66% Calm Calm -- 29.80 in1009.1 mb - 0.00 in0.0 mm 0.00 in0.0 mm
10:50 AM 35.2°F1.8°C 25.0°F-3.9°C 66% Calm Calm -- 29.80 in1009.1 mb - 0.00 in0.0 mm 0.00 in0.0 mm
11:00 AM 35.4°F1.9°C 24.8°F-4.0°C 65% Calm Calm -- 29.78 in1008.5 mb - 0.00 in0.0 mm 0.00 in0.0 mm
11:10 AM 35.9°F2.2°C 24.1°F-4.4°C 62% Calm Calm -- 29.77 in1008.1 mb - 0.00 in0.0 mm 0.00 in0.0 mm
11:20 AM 37.2°F2.9°C 26.1°F-3.3°C 64% Calm Calm -- 29.77 in1008.1 mb - 0.00 in0.0 mm 0.00 in0.0 mm
11:30 AM 38.0°F3.3°C 26.9°F-2.8°C 64% Calm Calm -- 29.75 in1007.5 mb - 0.00 in0.0 mm 0.00 in0.0 mm
11:40 AM 38.3°F3.5°C 25.6°F-3.6°C 60% Calm Calm -- 29.74 in1007.1 mb - 0.00 in0.0 mm 0.00 in0.0 mm
11:50 AM 38.9°F3.8°C 26.6°F-3.0°C 61% Calm Calm -- 29.74 in1007.1 mb - 0.00 in0.0 mm 0.00 in0.0 mm
12:00 PM 40.4°F4.7°C 28.0°F-2.2°C 61% Calm Calm -- 29.74 in1007.1 mb - 0.00 in0.0 mm 0.00 in0.0 mm
12:10 PM 41.2°F5.1°C 28.0°F-2.2°C 59% Calm Calm -- 29.74 in1007.1 mb - 0.00 in0.0 mm 0.00 in0.0 mm
12:20 PM 41.5°F5.3°C 27.8°F-2.3°C 58% Calm Calm -- 29.71 in1006.1 mb - 0.00 in0.0 mm 0.00 in0.0 mm
12:30 PM 42.0°F5.6°C 29.1°F-1.6°C 60% Calm Calm -- 29.71 in1006.1 mb - 0.00 in0.0 mm 0.00 in0.0 mm
12:40 PM 42.9°F6.1°C 30.7°F-0.7°C 62% Calm Calm -- 29.71 in1006.1 mb - 0.00 in0.0 mm 0.00 in0.0 mm
12:50 PM 44.1°F6.7°C 31.9°F-0.1°C 62% Calm Calm -- 29.68 in1005.1 mb - 0.00 in0.0 mm 0.00 in0.0 mm
01:00 PM 44.8°F7.1°C 32.1°F0.1°C 61% Calm Calm -- 29.68 in1005.1 mb - 0.00 in0.0 mm 0.00 in0.0 mm
01:10 PM 44.8°F7.1°C 31.7°F-0.2°C 60% Calm Calm -- 29.68 in1005.1 mb - 0.00 in0.0 mm 0.00 in0.0 mm
01:20 PM 44.7°F7.1°C 31.6°F-0.2°C 60% Calm Calm -- 29.68 in1005.1 mb - 0.00 in0.0 mm 0.00 in0.0 mm
01:30 PM 44.7°F7.1°C 32.5°F0.3°C 62% Calm Calm -- 29.66 in1004.4 mb - 0.00 in0.0 mm 0.00 in0.0 mm
01:40 PM 45.1°F7.3°C 32.8°F0.4°C 62% Calm Calm -- 29.65 in1004.1 mb - 0.00 in0.0 mm 0.00 in0.0 mm
01:50 PM 45.5°F7.5°C 33.7°F0.9°C 63% Calm Calm -- 29.65 in1004.1 mb - 0.00 in0.0 mm 0.00 in0.0 mm
02:00 PM 46.3°F7.9°C 35.1°F1.7°C 65% Calm Calm -- 29.65 in1004.1 mb - 0.00 in0.0 mm 0.00 in0.0 mm
02:10 PM 46.7°F8.2°C 35.9°F2.2°C 66% Calm Calm -- 29.65 in1004.1 mb - 0.00 in0.0 mm 0.00 in0.0 mm
02:20 PM 46.9°F8.3°C 36.5°F2.5°C 67% Calm Calm -- 29.62 in1003.0 mb - 0.00 in0.0 mm 0.00 in0.0 mm
02:30 PM 47.3°F8.5°C 37.6°F3.1°C 69% Calm Calm -- 29.62 in1003.0 mb - 0.00 in0.0 mm 0.00 in0.0 mm
02:40 PM 48.1°F8.9°C 39.1°F3.9°C 71% Calm Calm -- 29.62 in1003.0 mb - 0.00 in0.0 mm 0.00 in0.0 mm
02:50 PM 48.8°F9.3°C 40.2°F4.6°C 72% Calm Calm -- 29.59 in1002.0 mb - 0.00 in0.0 mm 0.00 in0.0 mm
03:00 PM 49.2°F9.6°C 40.6°F4.8°C 72% Calm Calm -- 29.59 in1002.0 mb - 0.00 in0.0 mm 0.00 in0.0 mm
03:10 PM 49.5°F9.7°C 40.8°F4.9°C 72% Calm Calm -- 29.59 in1002.0 mb - 0.00 in0.0 mm 0.00 in0.0 mm
03:20 PM 49.8°F9.9°C 40.7°F4.8°C 71% Calm Calm -- 29.59 in1002.0 mb - 0.00 in0.0 mm 0.00 in0.0 mm
03:30 PM 50.0°F10.0°C 41.3°F5.2°C 72% Calm Calm -- 29.59 in1002.0 mb - 0.00 in0.0 mm 0.00 in0.0 mm
03:40 PM 50.2°F10.1°C 41.5°F5.3°C 72% Calm Calm -- 29.59 in1002.0 mb - 0.00 in0.0 mm 0.00 in0.0 mm
03:50 PM 50.2°F10.1°C 41.8°F5.4°C 73% Calm Calm -- 29.56 in1001.0 mb - 0.00 in0.0 mm 0.00 in0.0 mm
04:00 PM 50.2°F10.1°C 42.2°F5.7°C 74% Calm Calm -- 29.56 in1001.0 mb - 0.00 in0.0 mm 0.00 in0.0 mm
04:10 PM 50.2°F10.1°C 42.2°F5.7°C 74% Calm Calm -- 29.56 in1001.0 mb - 0.00 in0.0 mm 0.00 in0.0 mm
04:21 PM 50.3°F10.2°C 43.0°F6.1°C 76% Calm Calm -- 29.56 in1001.0 mb - 0.00 in0.0 mm 0.00 in0.0 mm
04:30 PM 49.8°F9.9°C 44.2°F6.8°C 81% Calm Calm -- 29.56 in1001.0 mb - 0.00 in0.0 mm 0.00 in0.0 mm
04:40 PM 49.0°F9.4°C 47.7°F8.7°C 95% Calm Calm -- 29.56 in1001.0 mb - 0.00 in0.0 mm 0.00 in0.0 mm
04:50 PM 48.6°F9.2°C 48.6°F9.2°C 100% Calm Calm -- 29.56 in1001.0 mb - 0.00 in0.0 mm 0.00 in0.0 mm
05:00 PM 48.4°F9.1°C 48.4°F9.1°C 100% Calm Calm -- 29.56 in1001.0 mb - 0.00 in0.0 mm 0.00 in0.0 mm
05:10 PM 48.4°F9.1°C 48.4°F9.1°C 100% Calm Calm -- 29.56 in1001.0 mb - 0.00 in0.0 mm 0.00 in0.0 mm
05:20 PM 48.3°F9.1°C 48.3°F9.1°C 100% Calm Calm -- 29.54 in1000.3 mb - 0.00 in0.0 mm 0.00 in0.0 mm
05:30 PM 48.2°F9.0°C 48.2°F9.0°C 100% Calm Calm -- 29.53 in1000.0 mb - 0.00 in0.0 mm 0.00 in0.0 mm
05:40 PM 48.1°F8.9°C 48.1°F8.9°C 100% Calm Calm -- 29.53 in1000.0 mb - 0.00 in0.0 mm 0.00 in0.0 mm
05:50 PM 48.2°F9.0°C 48.2°F9.0°C 100% Calm Calm -- 29.53 in1000.0 mb - 0.00 in0.0 mm 0.00 in0.0 mm
06:00 PM 48.2°F9.0°C 48.2°F9.0°C 100% Calm Calm -- 29.53 in1000.0 mb - 0.00 in0.0 mm 0.00 in0.0 mm
06:10 PM 48.4°F9.1°C 48.4°F9.1°C 100% Calm Calm -- 29.53 in1000.0 mb - 0.00 in0.0 mm 0.00 in0.0 mm
06:20 PM 48.4°F9.1°C 48.4°F9.1°C 100% Calm Calm -- 29.53 in1000.0 mb - 0.04 in1.0 mm 0.04 in1.0 mm
06:30 PM 48.4°F9.1°C 48.4°F9.1°C 100% Calm Calm -- 29.53 in1000.0 mb - 0.00 in0.0 mm 0.04 in1.0 mm
06:40 PM 48.3°F9.1°C 48.3°F9.1°C 100% Calm Calm -- 29.53 in1000.0 mb - 0.00 in0.0 mm 0.04 in1.0 mm
06:50 PM 48.2°F9.0°C 48.2°F9.0°C 100% Calm Calm -- 29.53 in1000.0 mb - 0.00 in0.0 mm 0.04 in1.0 mm
07:00 PM 48.1°F8.9°C 48.1°F8.9°C 100% Calm Calm -- 29.52 in999.7 mb - 0.04 in1.0 mm 0.08 in2.0 mm
07:10 PM 47.9°F8.8°C 47.9°F8.8°C 100% Calm Calm -- 29.50 in999.0 mb - 0.00 in0.0 mm 0.08 in2.0 mm
07:20 PM 48.0°F8.9°C 48.0°F8.9°C 100% Calm Calm -- 29.50 in999.0 mb - 0.00 in0.0 mm 0.08 in2.0 mm
07:30 PM 48.2°F9.0°C 48.2°F9.0°C 100% Calm Calm -- 29.50 in999.0 mb - 0.00 in0.0 mm 0.08 in2.0 mm
07:40 PM 48.2°F9.0°C 48.2°F9.0°C 100% Calm Calm -- 29.50 in999.0 mb - 0.00 in0.0 mm 0.08 in2.0 mm
07:51 PM 48.4°F9.1°C 48.4°F9.1°C 100% Calm Calm -- 29.47 in998.0 mb - 0.00 in0.0 mm 0.08 in2.0 mm
08:00 PM 48.5°F9.2°C 48.5°F9.2°C 100% Calm Calm -- 29.47 in998.0 mb - 0.00 in0.0 mm 0.08 in2.0 mm
08:10 PM 48.8°F9.3°C 48.8°F9.3°C 100% Calm Calm -- 29.47 in998.0 mb - 0.00 in0.0 mm 0.08 in2.0 mm
08:20 PM 49.0°F9.4°C 49.0°F9.4°C 100% Calm Calm -- 29.47 in998.0 mb - 0.00 in0.0 mm 0.08 in2.0 mm
08:30 PM 49.0°F9.4°C 49.0°F9.4°C 100% Calm Calm -- 29.47 in998.0 mb - 0.00 in0.0 mm 0.08 in2.0 mm
08:40 PM 48.9°F9.4°C 48.9°F9.4°C 100% Calm Calm -- 29.47 in998.0 mb - 0.00 in0.0 mm 0.08 in2.0 mm
08:50 PM 48.5°F9.2°C 48.5°F9.2°C 100% Calm Calm -- 29.47 in998.0 mb - 0.00 in0.0 mm 0.08 in2.0 mm
09:01 PM 48.4°F9.1°C 48.4°F9.1°C 100% Calm Calm -- 29.47 in998.0 mb - 0.00 in0.0 mm 0.08 in2.0 mm
09:10 PM 48.6°F9.2°C 48.6°F9.2°C 100% Calm Calm -- 29.47 in998.0 mb - 0.00 in0.0 mm 0.08 in2.0 mm
09:20 PM 48.6°F9.2°C 48.6°F9.2°C 100% Calm Calm -- 29.44 in997.0 mb - 0.00 in0.0 mm 0.08 in2.0 mm
09:30 PM 48.6°F9.2°C 48.6°F9.2°C 100% Calm Calm -- 29.44 in997.0 mb - 0.00 in0.0 mm 0.08 in2.0 mm
09:40 PM 48.6°F9.2°C 48.6°F9.2°C 100% Calm Calm -- 29.44 in997.0 mb - 0.00 in0.0 mm 0.08 in2.0 mm
09:50 PM 48.5°F9.2°C 48.5°F9.2°C 100% Calm Calm -- 29.44 in997.0 mb - 0.00 in0.0 mm 0.08 in2.0 mm
10:00 PM 48.4°F9.1°C 48.4°F9.1°C 100% Calm Calm -- 29.44 in997.0 mb - 0.00 in0.0 mm 0.08 in2.0 mm
10:10 PM 48.2°F9.0°C 48.2°F9.0°C 100% Calm Calm -- 29.44 in997.0 mb - 0.00 in0.0 mm 0.08 in2.0 mm
10:20 PM 48.1°F8.9°C 48.1°F8.9°C 100% Calm Calm -- 29.41 in995.9 mb - 0.00 in0.0 mm 0.08 in2.0 mm
10:31 PM 48.0°F8.9°C 48.1°F8.9°C 100% Calm Calm -- 29.41 in995.9 mb - 0.00 in0.0 mm 0.12 in3.0 mm
10:40 PM 48.0°F8.9°C 48.0°F8.9°C 100% Calm Calm -- 29.41 in995.9 mb - 0.04 in1.0 mm 0.12 in3.0 mm
10:50 PM 48.2°F9.0°C 48.2°F9.0°C 100% Calm Calm -- 29.38 in994.9 mb - 0.00 in0.0 mm 0.12 in3.0 mm
11:00 PM 48.2°F9.0°C 48.2°F9.0°C 100% Calm Calm -- 29.38 in994.9 mb - 0.00 in0.0 mm 0.12 in3.0 mm
11:20 PM 48.2°F9.0°C 48.2°F9.0°C 100% Calm Calm -- 29.35 in993.9 mb - 0.00 in0.0 mm 0.12 in3.0 mm
11:31 PM 48.2°F9.0°C 48.2°F9.0°C 100% Calm Calm -- 29.35 in993.9 mb - 0.00 in0.0 mm 0.12 in3.0 mm
11:40 PM 48.6°F9.2°C 48.6°F9.2°C 100% Calm Calm -- 29.35 in993.9 mb - 0.00 in0.0 mm 0.12 in3.0 mm
11:50 PM 50.0°F10.0°C 50.0°F10.0°C 100% Calm Calm -- 29.35 in993.9 mb - 0.00 in0.0 mm 0.12 in3.0 mm